Leesburg Intl Information

FAA: LEE - ICAO: KLEE

Leesburg Intl (Airport) Location

State Florida
County Lake
City Leesburg
Leesburg Intl (Airport) is 3 miles northeast of Leesburg, FL.
Latitude 28-49-22.4000N
Longitude 081-48-30.3000W
Elevation 75ft

Leesburg Intl METARs

METAR KLEE 251653Z 12007KT 10SM OVC110 11/08 A3005 RMK AO2 RAE49 SLP176 P0001 T01060078
Altimeter 30.05"
Temperature 10.6°C (51.1°F)
Wind 120° at 7KT
Clouds overcast at 11,000ft
Visibility 10.0mi
Time observed: 2022-01-25T16:53:00Z

Leesburg Intl (Airport) Details

Status Operational
Activation January 1943
Ownership Public
Usage Public
Chart JACKSONVILLE
ATC on-site Yes
Beacon schedule sunset-sunrise
Beacon color clear green

Leesburg Intl (Airport) Contacts

Owner CITY OF LEESBURG
Owner address PO BOX 490630, LEESBURG, FL 34749-0630
Owner phone 352-516-7236
Manager JOHN SCANDURA
Manager address 1900 DON WICKMAN DR, CLERMONT, FL 34711
Manager phone 352-394-4071

Leesburg Intl Radio Frequencies

Leesburg Intl (Airport) Radio Frequencies

UNICOM 122.725
Common traffic advisory frequency (CTAF) 119.35